Time;durP1;ratioP1;P1;durP2;ratioP2;P2;SDS_P1;SDS_P2;PMS_P1;PMS_P2;Temp;Humidity;BMP_temperature;BMP_pressure;BME280_temperature;BME280_humidity;BME280_pressure;Samples;Min_cycle;Max_cycle;Signal;HPM_P1;HPM_P2
2021/06/29 00:02:00;;;;;;;;;;;;;;;24.98;58.26;100929.09;5045246;28;1235;-63
2021/06/29 00:04:47;;;;;;;;;;;;;;;24.95;58.20;100932.84;5048740;28;687;-62
2021/06/29 00:07:33;;;;;;;;;;;;;;;24.93;58.42;100925.94;5034455;28;1304;-62
2021/06/29 00:10:18;;;;;;;;;;;;;;;25.02;57.57;100922.53;5027429;28;1961;-62
2021/06/29 00:13:05;;;;;;;;;;;;;;;24.86;58.33;100922.09;5029084;28;1264;-62
2021/06/29 00:15:50;;;;;;;;;;;;;;;24.93;57.96;100920.59;5028582;28;675;-62
2021/06/29 00:18:36;;;;;;;;;;;;;;;24.98;57.55;100923.78;5035361;28;1442;-61
2021/06/29 00:21:21;;;;;;;;;;;;;;;25.00;57.21;100911.16;5048167;28;921;-62
2021/06/29 00:24:07;;;;;;;;;;;;;;;24.96;57.18;100917.69;5048112;28;687;-61
2021/06/29 00:26:52;;;;;;;;;;;;;;;24.88;57.26;100920.13;5048264;28;1244;-61
2021/06/29 00:29:37;;;;;;;;;;;;;;;24.84;57.35;100924.00;5048224;28;1961;-62
2021/06/29 00:32:23;;;;;;;;;;;;;;;24.87;57.30;100921.09;5048530;28;1339;-61
2021/06/29 00:35:08;;;;;;;;;;;;;;;24.85;57.31;100918.56;5048132;28;620;-61
2021/06/29 00:37:54;;;;;;;;;;;;;;;24.85;57.18;100915.91;5048106;28;1345;-62
2021/06/29 00:40:39;;;;;;;;;;;;;;;24.77;57.39;100909.47;5048189;28;679;-61
2021/06/29 00:43:24;;;;;;;;;;;;;;;24.81;57.16;100909.13;5031549;28;1287;-60
2021/06/29 00:46:09;;;;;;;;;;;;;;;24.69;57.57;100918.06;5028564;28;625;-61
2021/06/29 00:48:55;;;;;;;;;;;;;;;24.73;57.23;100913.34;5028251;28;659;-61
2021/06/29 00:51:40;;;;;;;;;;;;;;;24.85;56.68;100907.91;5042825;28;1906;-61
2021/06/29 00:54:25;;;;;;;;;;;;;;;24.70;57.03;100906.44;5035282;28;668;-62
2021/06/29 00:57:12;;;;;;;;;;;;;;;24.73;56.69;100908.00;5048073;28;1162;-62
2021/06/29 00:59:57;;;;;;;;;;;;;;;24.70;57.00;100906.44;5047799;28;635;-62
2021/06/29 01:02:42;;;;;;;;;;;;;;;24.70;57.00;100910.91;5047975;28;1266;-62
2021/06/29 01:05:27;;;;;;;;;;;;;;;24.63;56.97;100901.69;5048032;28;616;-62
2021/06/29 01:08:13;;;;;;;;;;;;;;;24.75;56.44;100906.91;5048014;28;1259;-62
2021/06/29 01:10:58;;;;;;;;;;;;;;;24.75;56.33;100908.72;5048721;28;1910;-62
2021/06/29 01:13:44;;;;;;;;;;;;;;;24.63;56.82;100907.88;5052179;28;1331;-62
2021/06/29 01:16:30;;;;;;;;;;;;;;;24.69;56.85;100903.88;5050279;28;1335;-61
2021/06/29 01:19:19;;;;;;;;;;;;;;;24.63;57.16;100917.69;5031960;28;668;-62
2021/06/29 01:22:08;;;;;;;;;;;;;;;24.75;56.61;100906.06;5031941;28;1257;-62
2021/06/29 01:24:56;;;;;;;;;;;;;;;24.71;56.69;100909.94;5031503;28;673;-62
2021/06/29 01:31:02;;;;;;;;;;;;;;;24.62;56.84;100902.69;5031359;28;1975;-63
2021/06/29 01:33:48;;;;;;;;;;;;;;;24.69;56.61;100896.75;5030121;28;1316;-62
2021/06/29 01:36:38;;;;;;;;;;;;;;;24.69;56.50;100898.56;5031329;28;1260;-61
2021/06/29 01:39:24;;;;;;;;;;;;;;;24.69;56.19;100906.53;5031289;28;719;-60
2021/06/29 01:42:13;;;;;;;;;;;;;;;24.66;56.48;100901.47;5031535;28;1261;-61
2021/06/29 01:44:58;;;;;;;;;;;;;;;24.59;56.47;100894.94;5031237;28;656;-61
2021/06/29 01:50:29;;;;;;;;;;;;;;;24.71;56.25;100892.16;5031383;28;1883;-61
2021/06/29 01:53:14;;;;;;;;;;;;;;;24.63;56.35;100899.88;5031179;28;1333;-61
2021/06/29 01:55:59;;;;;;;;;;;;;;;24.65;56.47;100900.63;5029795;28;687;-61
2021/06/29 01:58:51;;;;;;;;;;;;;;;24.64;56.36;100892.75;5031226;28;1310;-61
2021/06/29 02:01:38;;;;;;;;;;;;;;;24.66;56.26;100893.47;5031069;28;1237;-62
2021/06/29 02:04:24;;;;;;;;;;;;;;;24.61;56.26;100879.69;5031304;28;632;-62
2021/06/29 02:07:10;;;;;;;;;;;;;;;24.66;56.21;100883.66;5031035;28;1354;-62
2021/06/29 02:09:55;;;;;;;;;;;;;;;24.67;56.04;100876.53;5030931;28;1902;-62
2021/06/29 02:12:42;;;;;;;;;;;;;;;24.61;56.21;100882.34;5030694;28;1363;-62
2021/06/29 02:15:27;;;;;;;;;;;;;;;24.65;56.26;100878.47;5030962;28;629;-62
2021/06/29 02:18:12;;;;;;;;;;;;;;;24.67;56.27;100879.19;5030667;28;1406;-62
2021/06/29 02:20:58;;;;;;;;;;;;;;;24.69;55.99;100869.25;5031072;28;597;-62
2021/06/29 02:23:43;;;;;;;;;;;;;;;24.62;56.10;100866.25;5030865;28;1339;-61
2021/06/29 02:26:28;;;;;;;;;;;;;;;24.66;56.12;100870.34;5029260;28;1327;-61
2021/06/29 02:29:14;;;;;;;;;;;;;;;24.61;56.22;100872.53;5030403;28;648;-61
2021/06/29 02:31:59;;;;;;;;;;;;;;;24.60;56.35;100872.66;5030510;28;1906;-61
2021/06/29 02:34:44;;;;;;;;;;;;;;;24.55;56.42;100869.50;5030361;28;1046;-61
2021/06/29 02:37:29;;;;;;;;;;;;;;;24.52;56.71;100872.41;5030236;28;1339;-62
2021/06/29 02:40:15;;;;;;;;;;;;;;;24.58;56.27;100869.28;5030626;28;604;-61
2021/06/29 02:43:00;;;;;;;;;;;;;;;24.59;56.26;100863.00;5030466;28;1283;-62
2021/06/29 02:45:46;;;;;;;;;;;;;;;24.58;56.12;100864.78;5030034;28;727;-61
2021/06/29 02:48:31;;;;;;;;;;;;;;;24.61;56.00;100871.69;5030204;28;1335;-62
2021/06/29 02:51:17;;;;;;;;;;;;;;;24.61;56.30;100861.03;5029794;28;1961;-61
2021/06/29 02:54:02;;;;;;;;;;;;;;;24.57;56.45;100870.22;5030189;28;655;-62
2021/06/29 02:56:47;;;;;;;;;;;;;;;24.57;56.60;100862.25;5029707;28;1227;-62
2021/06/29 02:59:33;;;;;;;;;;;;;;;24.47;56.58;100865.63;5030417;28;715;-61
2021/06/29 03:02:18;;;;;;;;;;;;;;;24.45;56.37;100864.91;5029190;28;1200;-61
2021/06/29 03:05:05;;;;;;;;;;;;;;;24.48;56.20;100858.50;5028538;28;782;-62
2021/06/29 03:07:50;;;;;;;;;;;;;;;24.55;56.26;100861.53;5029834;28;1355;-63
2021/06/29 03:10:35;;;;;;;;;;;;;;;24.54;56.42;100854.50;5029377;28;1910;-62
2021/06/29 03:13:20;;;;;;;;;;;;;;;24.49;56.35;100852.22;5029753;28;1194;-62
2021/06/29 03:16:06;;;;;;;;;;;;;;;24.44;56.87;100851.72;5029336;28;719;-62
2021/06/29 03:18:52;;;;;;;;;;;;;;;24.43;57.24;100850.03;5029544;28;1694;-62
2021/06/29 03:21:37;;;;;;;;;;;;;;;24.47;57.28;100849.66;5029139;28;1333;-61
2021/06/29 03:24:23;;;;;;;;;;;;;;;24.54;57.22;100843.84;5029186;28;667;-62
2021/06/29 03:27:08;;;;;;;;;;;;;;;24.59;57.28;100852.34;5029088;28;1342;-61
2021/06/29 03:29:53;;;;;;;;;;;;;;;24.55;57.26;100851.72;5028795;28;612;-62
2021/06/29 03:32:39;;;;;;;;;;;;;;;24.60;57.41;100854.00;5029439;28;1236;-62
2021/06/29 03:35:24;;;;;;;;;;;;;;;24.50;57.71;100839.75;5028759;28;622;-60
2021/06/29 03:38:09;;;;;;;;;;;;;;;24.51;57.55;100844.09;5029416;28;1331;-61
2021/06/29 03:40:55;;;;;;;;;;;;;;;24.56;57.13;100850.78;5029438;28;600;-61
2021/06/29 03:43:40;;;;;;;;;;;;;;;24.46;57.52;100847.97;5029365;28;1362;-61
2021/06/29 03:46:26;;;;;;;;;;;;;;;24.44;57.27;100857.88;5028873;28;1774;-62
2021/06/29 03:49:11;;;;;;;;;;;;;;;24.54;56.90;100854.50;5028795;28;810;-62
2021/06/29 03:51:57;;;;;;;;;;;;;;;24.50;57.44;100858.41;5028825;28;1965;-61
2021/06/29 03:54:42;;;;;;;;;;;;;;;24.35;57.63;100866.59;5029042;28;683;-62
2021/06/29 03:57:27;;;;;;;;;;;;;;;24.37;57.65;100859.38;5029081;28;1273;-60
2021/06/29 04:00:13;;;;;;;;;;;;;;;24.45;57.46;100867.59;5029011;28;616;-61
2021/06/29 04:02:58;;;;;;;;;;;;;;;24.49;57.10;100865.53;5028686;28;1256;-61
2021/06/29 04:05:44;;;;;;;;;;;;;;;24.43;57.59;100872.19;5028710;28;688;-62
2021/06/29 04:08:29;;;;;;;;;;;;;;;24.42;57.65;100866.97;5028952;28;1346;-62
2021/06/29 04:11:15;;;;;;;;;;;;;;;24.50;57.30;100867.19;5028532;28;1910;-63
2021/06/29 04:14:00;;;;;;;;;;;;;;;24.28;58.21;100868.06;5028682;28;644;-62
2021/06/29 04:16:45;;;;;;;;;;;;;;;24.42;57.78;100875.81;5028463;28;1450;-62
2021/06/29 04:19:30;;;;;;;;;;;;;;;24.53;57.53;100871.47;5028698;28;636;-62
2021/06/29 04:22:16;;;;;;;;;;;;;;;24.49;57.72;100873.50;5028340;28;1216;-62
2021/06/29 04:25:02;;;;;;;;;;;;;;;24.36;58.21;100868.31;5028282;28;628;-63
2021/06/29 04:27:47;;;;;;;;;;;;;;;24.38;58.24;100876.16;5028543;28;1353;-62
2021/06/29 04:30:33;;;;;;;;;;;;;;;24.39;58.29;100872.53;5028547;28;1906;-61
2021/06/29 04:33:18;;;;;;;;;;;;;;;24.35;58.63;100877.25;5040753;28;1313;-61
2021/06/29 04:36:03;;;;;;;;;;;;;;;24.39;58.42;100868.06;5028147;28;660;-61
2021/06/29 04:38:49;;;;;;;;;;;;;;;24.35;58.69;100871.06;5028223;28;636;-61
2021/06/29 04:41:34;;;;;;;;;;;;;;;24.39;58.64;100877.88;5027958;28;1233;-61
2021/06/29 04:44:19;;;;;;;;;;;;;;;24.34;58.73;100877.38;5028179;28;557;-62
2021/06/29 04:47:05;;;;;;;;;;;;;;;24.41;58.63;100879.44;5027496;28;1349;-62
2021/06/29 04:49:55;;;;;;;;;;;;;;;24.27;59.13;100881.47;5027894;28;554;-61
2021/06/29 04:52:40;;;;;;;;;;;;;;;24.32;59.07;100877.50;5027901;28;1958;-62
2021/06/29 04:55:25;;;;;;;;;;;;;;;24.41;58.53;100882.09;5028166;28;632;-61
2021/06/29 04:58:11;;;;;;;;;;;;;;;24.28;59.07;100893.84;5027568;28;1427;-61
2021/06/29 05:00:56;;;;;;;;;;;;;;;24.37;58.81;100885.13;5027743;28;648;-61
2021/06/29 05:03:42;;;;;;;;;;;;;;;24.25;59.18;100889.59;5028211;28;1255;-61
2021/06/29 05:06:28;;;;;;;;;;;;;;;24.36;58.82;100894.06;5027604;28;1231;-62
2021/06/29 05:09:13;;;;;;;;;;;;;;;24.39;58.95;100908.00;5028115;28;609;-61
2021/06/29 05:11:58;;;;;;;;;;;;;;;24.42;58.94;100904.25;5027533;28;1965;-61
2021/06/29 05:14:43;;;;;;;;;;;;;;;24.46;59.10;100903.91;5040545;28;1242;-61
2021/06/29 05:17:29;;;;;;;;;;;;;;;24.35;59.73;100905.69;5045176;28;1459;-60
2021/06/29 05:20:14;;;;;;;;;;;;;;;24.42;59.41;100905.09;5044281;28;1274;-61
2021/06/29 05:22:59;;;;;;;;;;;;;;;24.43;59.36;100912.13;5045366;28;1358;-60
2021/06/29 05:25:45;;;;;;;;;;;;;;;24.48;59.36;100909.94;5046252;28;1106;-57
2021/06/29 05:28:30;;;;;;;;;;;;;;;24.50;59.55;100920.47;5046686;28;1256;-60
2021/06/29 05:31:16;;;;;;;;;;;;;;;24.51;59.28;100918.66;5046439;28;1906;-59
2021/06/29 05:34:01;;;;;;;;;;;;;;;24.57;59.37;100918.16;5043746;28;1056;-60
2021/06/29 05:36:46;;;;;;;;;;;;;;;24.57;59.23;100918.16;5044771;28;1216;-59
2021/06/29 05:39:32;;;;;;;;;;;;;;;24.63;59.48;100917.69;5045421;28;1043;-59
2021/06/29 05:42:17;;;;;;;;;;;;;;;24.62;59.43;100924.00;5045735;28;1279;-60
2021/06/29 05:45:04;;;;;;;;;;;;;;;24.68;59.13;100929.69;5042704;28;1224;-58
2021/06/29 05:47:50;;;;;;;;;;;;;;;24.73;59.15;100924.00;5044804;28;1217;-57
2021/06/29 05:50:36;;;;;;;;;;;;;;;24.76;58.93;100924.59;5045195;28;1051;-59
2021/06/29 05:53:21;;;;;;;;;;;;;;;24.70;59.52;100929.56;5043021;28;1264;-58
2021/06/29 05:56:09;;;;;;;;;;;;;;;24.73;59.42;100934.66;5043252;28;1186;-59
2021/06/29 05:58:54;;;;;;;;;;;;;;;24.74;59.22;100933.69;5048166;28;1068;-58
2021/06/29 06:01:40;;;;;;;;;;;;;;;24.75;59.12;100932.69;5046677;28;1271;-60
2021/06/29 06:04:28;;;;;;;;;;;;;;;24.70;59.66;100943.72;5047941;28;1040;-60
2021/06/29 06:07:14;;;;;;;;;;;;;;;24.74;59.38;100936.34;5047842;28;1236;-59
2021/06/29 06:09:59;;;;;;;;;;;;;;;24.77;59.05;100936.97;5048843;28;1352;-59
2021/06/29 06:12:44;;;;;;;;;;;;;;;24.80;59.31;100942.03;5049349;28;2224;-59
2021/06/29 06:15:29;;;;;;;;;;;;;;;24.83;59.21;100947.16;5047896;28;1008;-58
2021/06/29 06:18:15;;;;;;;;;;;;;;;24.75;59.14;100933.53;5048138;28;1513;-60
2021/06/29 06:21:00;;;;;;;;;;;;;;;24.74;59.27;100947.00;5049436;28;1003;-60
2021/06/29 06:23:45;;;;;;;;;;;;;;;24.80;59.17;100949.19;5047814;28;1260;-60
2021/06/29 06:26:31;;;;;;;;;;;;;;;24.77;59.19;100949.44;5047883;28;1343;-59
2021/06/29 06:29:17;;;;;;;;;;;;;;;24.85;59.20;100960.34;5047407;28;1039;-64
2021/06/29 06:32:03;;;;;;;;;;;;;;;24.86;58.89;100962.91;5044609;28;1906;-58
2021/06/29 06:34:49;;;;;;;;;;;;;;;24.83;59.18;100962.28;5044401;28;1059;-59
2021/06/29 06:37:34;;;;;;;;;;;;;;;24.84;59.19;100966.63;5046910;28;1325;-59
2021/06/29 06:40:20;;;;;;;;;;;;;;;24.84;59.21;100970.16;5047583;28;1221;-59
2021/06/29 06:43:05;;;;;;;;;;;;;;;24.85;58.88;100971.84;5047825;28;1267;-60
2021/06/29 06:45:51;;;;;;;;;;;;;;;24.87;58.91;100969.91;5071189;28;1254;-58
2021/06/29 06:48:37;;;;;;;;;;;;;;;24.90;58.76;100968.81;5047540;28;1176;-60
2021/06/29 06:51:23;;;;;;;;;;;;;;;24.92;58.56;100973.06;5045566;28;1961;-59
2021/06/29 06:54:09;;;;;;;;;;;;;;;25.02;59.02;100983.81;5042397;28;1292;-60
2021/06/29 06:56:54;;;;;;;;;;;;;;;25.06;58.23;100982.63;5046758;28;1230;-63
2021/06/29 06:59:39;;;;;;;;;;;;;;;25.02;58.10;100984.69;5046806;28;1158;-63
2021/06/29 07:02:25;;;;;;;;;;;;;;;25.05;57.85;100977.44;5045191;28;1242;-64
2021/06/29 07:05:10;;;;;;;;;;;;;;;25.05;58.18;100982.75;5046700;28;1090;-65
2021/06/29 07:07:55;;;;;;;;;;;;;;;25.08;57.74;100988.66;5046319;28;1227;-64
2021/06/29 07:10:40;;;;;;;;;;;;;;;25.09;57.48;100985.03;5049994;28;1087;-64
2021/06/29 07:13:28;;;;;;;;;;;;;;;25.08;57.26;100986.00;5046033;28;1310;-65
2021/06/29 07:16:22;;;;;;;;;;;;;;;25.10;57.12;100984.09;5046223;28;1224;-62
2021/06/29 07:19:10;;;;;;;;;;;;;;;25.11;56.42;100993.75;5046769;28;1025;-63
2021/06/29 07:21:55;;;;;;;;;;;;;;;25.13;56.72;100986.50;5049562;28;1323;-64
2021/06/29 07:24:40;;;;;;;;;;;;;;;25.24;56.17;100989.16;5047392;28;1631;-63
2021/06/29 07:27:25;;;;;;;;;;;;;;;25.25;56.10;100990.84;5058269;28;1263;-63
2021/06/29 07:30:11;;;;;;;;;;;;;;;25.30;56.20;100990.47;5058352;28;1258;-64
2021/06/29 07:32:58;;;;;;;;;;;;;;;25.26;55.36;100991.72;5048962;28;1906;-62
2021/06/29 07:35:44;;;;;;;;;;;;;;;25.28;55.42;100995.94;5047907;28;640;-60
2021/06/29 07:38:29;;;;;;;;;;;;;;;25.32;55.33;100988.53;5047641;28;1255;-62
2021/06/29 07:41:15;;;;;;;;;;;;;;;25.33;54.95;100988.41;5050943;28;1200;-62
2021/06/29 07:44:00;;;;;;;;;;;;;;;25.34;54.30;100991.91;5053885;28;964;-63
2021/06/29 07:46:45;;;;;;;;;;;;;;;25.35;54.38;100990.97;5047249;28;1276;-62
2021/06/29 07:49:31;;;;;;;;;;;;;;;25.35;54.11;100985.63;5047173;28;960;-61
2021/06/29 07:52:16;;;;;;;;;;;;;;;25.34;54.27;100990.09;5045864;28;1965;-62
2021/06/29 07:55:06;;;;;;;;;;;;;;;25.37;54.48;100987.19;5027163;28;723;-60
2021/06/29 07:57:51;;;;;;;;;;;;;;;25.36;53.75;100992.63;5031202;28;1310;-60
2021/06/29 08:00:37;;;;;;;;;;;;;;;25.43;53.91;100983.19;5044735;28;1573;-62
2021/06/29 08:03:22;;;;;;;;;;;;;;;25.44;53.90;100977.69;5036846;28;1383;-62
2021/06/29 08:06:10;;;;;;;;;;;;;;;25.51;54.38;100991.41;5038186;28;655;-63
2021/06/29 08:08:56;;;;;;;;;;;;;;;25.52;54.20;100985.97;5046620;28;997;-64
2021/06/29 08:11:44;;;;;;;;;;;;;;;25.45;53.75;100984.75;5046811;28;1963;-64
2021/06/29 08:14:30;;;;;;;;;;;;;;;25.46;54.18;100993.59;5045216;28;988;-63
2021/06/29 08:17:15;;;;;;;;;;;;;;;25.47;53.94;100984.63;5046812;28;1502;-63
2021/06/29 08:20:00;;;;;;;;;;;;;;;25.47;53.96;100979.31;5047149;28;635;-63
2021/06/29 08:22:47;;;;;;;;;;;;;;;25.45;54.13;100986.56;5046578;28;1268;-64
2021/06/29 08:25:33;;;;;;;;;;;;;;;25.44;54.17;100985.69;5046851;28;632;-65
2021/06/29 08:28:19;;;;;;;;;;;;;;;25.50;54.15;100976.41;5044228;28;1251;-63
2021/06/29 08:31:05;;;;;;;;;;;;;;;25.52;54.05;100972.66;5036360;28;700;-65
2021/06/29 08:33:53;;;;;;;;;;;;;;;25.50;54.22;100974.56;5047009;28;1217;-62
2021/06/29 08:36:42;;;;;;;;;;;;;;;25.51;53.96;100976.28;5047042;28;1323;-65
2021/06/29 08:39:27;;;;;;;;;;;;;;;25.51;54.40;100970.94;5046268;28;976;-65
2021/06/29 08:42:13;;;;;;;;;;;;;;;25.58;54.97;100973.94;5046688;28;1248;-63
2021/06/29 08:44:58;;;;;;;;;;;;;;;25.56;54.77;100973.25;5046660;28;663;-66
2021/06/29 08:47:44;;;;;;;;;;;;;;;25.53;54.62;100976.97;5046380;28;1279;-66
2021/06/29 08:50:31;;;;;;;;;;;;;;;25.54;54.81;100978.69;5040372;28;1527;-67
2021/06/29 08:53:16;;;;;;;;;;;;;;;25.56;54.29;100983.06;5046296;28;1914;-67
2021/06/29 08:56:03;;;;;;;;;;;;;;;25.54;54.71;100981.34;5045819;28;696;-65
2021/06/29 08:58:49;;;;;;;;;;;;;;;25.56;54.70;100970.56;5045889;28;1525;-65
2021/06/29 09:01:34;;;;;;;;;;;;;;;25.55;54.67;100971.53;5045950;28;1418;-65
2021/06/29 09:04:39;;;;;;;;;;;;;;;25.57;54.52;100971.41;5046775;28;993;-66
2021/06/29 09:07:24;;;;;;;;;;;;;;;25.60;54.47;100974.66;5046145;28;1541;-63
2021/06/29 09:10:10;;;;;;;;;;;;;;;25.61;54.49;100978.19;5045654;28;710;-65
2021/06/29 09:12:56;;;;;;;;;;;;;;;25.63;54.70;100973.56;5044620;28;1979;-64
2021/06/29 09:15:42;;;;;;;;;;;;;;;25.65;54.74;100977.81;5044563;28;1546;-67
2021/06/29 09:18:29;;;;;;;;;;;;;;;25.65;54.73;100977.81;5044175;28;1797;-67
2021/06/29 09:21:15;;;;;;;;;;;;;;;25.65;54.25;100976.97;5044397;28;797;-68
2021/06/29 09:24:00;;;;;;;;;;;;;;;25.65;54.43;100979.63;5044849;28;1031;-72
2021/06/29 09:26:46;;;;;;;;;;;;;;;25.68;54.50;100979.38;5044878;28;1318;-69
2021/06/29 09:29:37;;;;;;;;;;;;;;;25.68;54.38;100982.91;5044757;28;1008;-71
2021/06/29 09:32:22;;;;;;;;;;;;;;;25.69;54.16;100981.91;5049270;28;1910;-68
2021/06/29 09:35:11;;;;;;;;;;;;;;;25.69;54.41;100989.91;5028774;28;805;-68
2021/06/29 09:37:57;;;;;;;;;;;;;;;25.67;54.15;100986.53;5032385;28;1362;-68
2021/06/29 09:40:42;;;;;;;;;;;;;;;25.68;54.11;100982.06;5048101;28;580;-68
2021/06/29 09:43:31;;;;;;;;;;;;;;;25.68;53.87;100982.91;5047779;28;1275;-66
2021/06/29 09:46:17;;;;;;;;;;;;;;;25.69;53.21;100984.56;5041909;28;1392;-67
2021/06/29 09:49:08;;;;;;;;;;;;;;;25.68;53.15;100987.38;5041488;28;1006;-68
2021/06/29 09:52:04;;;;;;;;;;;;;;;25.71;53.32;101003.16;5046801;28;1981;-64
2021/06/29 09:54:49;;;;;;;;;;;;;;;25.70;53.33;100994.28;5047842;28;1011;-65
2021/06/29 09:57:35;;;;;;;;;;;;;;;25.70;53.57;100985.44;5046379;28;1302;-66
2021/06/29 10:00:39;;;;;;;;;;;;;;;25.72;53.23;101000.34;5048647;28;647;-68
2021/06/29 10:03:25;;;;;;;;;;;;;;;25.71;53.19;100988.00;5047979;28;1300;-67
2021/06/29 10:06:15;;;;;;;;;;;;;;;25.71;53.79;100992.47;5047524;28;1232;-69
2021/06/29 10:09:02;;;;;;;;;;;;;;;25.71;53.75;100988.00;5047717;28;1020;-68
2021/06/29 10:11:52;;;;;;;;;;;;;;;25.77;54.25;100991.97;5047121;28;1977;-63
2021/06/29 10:14:38;;;;;;;;;;;;;;;25.78;55.07;100996.31;5047085;28;1052;-64
2021/06/29 10:17:23;;;;;;;;;;;;;;;25.77;54.99;100994.63;5045777;28;1369;-67
2021/06/29 10:20:24;;;;;;;;;;;;;;;25.73;54.77;100994.03;5046221;28;628;-67
2021/06/29 10:23:11;;;;;;;;;;;;;;;25.73;54.33;101002.03;5045997;28;1572;-70
2021/06/29 10:26:01;;;;;;;;;;;;;;;25.76;54.69;101000.94;5046315;28;691;-70
2021/06/29 10:28:47;;;;;;;;;;;;;;;25.79;54.43;100998.00;5045163;28;1233;-65
2021/06/29 10:31:33;;;;;;;;;;;;;;;25.77;54.58;101002.63;5046896;28;1344;-63
2021/06/29 10:34:19;;;;;;;;;;;;;;;25.74;54.55;101003.75;5051442;28;1113;-63
2021/06/29 10:37:06;;;;;;;;;;;;;;;25.67;54.69;100997.22;5044836;28;1432;-63
2021/06/29 10:39:52;;;;;;;;;;;;;;;25.68;54.59;100998.06;5047137;28;1021;-62
2021/06/29 10:42:42;;;;;;;;;;;;;;;25.69;54.41;100994.41;5029827;28;1191;-63
2021/06/29 10:45:33;;;;;;;;;;;;;;;25.69;54.62;100994.41;5046149;28;822;-65
2021/06/29 10:48:21;;;;;;;;;;;;;;;25.69;54.64;100989.91;5048170;28;1268;-63
2021/06/29 10:51:09;;;;;;;;;;;;;;;25.69;54.48;100997.91;5048705;28;691;-64
2021/06/29 10:53:54;;;;;;;;;;;;;;;25.68;54.45;100998.91;5048735;28;2005;-63
2021/06/29 10:56:53;;;;;;;;;;;;;;;25.68;54.50;100998.91;5048596;28;1211;-63
2021/06/29 10:59:40;;;;;;;;;;;;;;;25.68;54.96;101003.41;5048060;28;976;-64
2021/06/29 11:02:28;;;;;;;;;;;;;;;25.67;54.70;101007.88;5048288;28;1255;-64
2021/06/29 11:05:21;;;;;;;;;;;;;;;25.66;54.80;101005.31;5048816;28;1044;-62
2021/06/29 11:08:13;;;;;;;;;;;;;;;25.65;55.36;101003.66;5040293;28;1413;-67
2021/06/29 11:11:08;;;;;;;;;;;;;;;25.67;55.54;101002.53;5034574;28;1499;-65
2021/06/29 11:13:53;;;;;;;;;;;;;;;25.69;55.78;101010.41;5044592;28;1997;-65
2021/06/29 11:16:59;;;;;;;;;;;;;;;25.69;55.69;101010.41;5047702;28;1288;-65
2021/06/29 11:20:05;;;;;;;;;;;;;;;25.63;55.97;101005.56;5047476;28;1008;-65
2021/06/29 11:22:52;;;;;;;;;;;;;;;25.67;56.22;101020.38;5047025;28;1283;-64
2021/06/29 11:25:39;;;;;;;;;;;;;;;25.68;56.35;101014.06;5047365;28;1059;-64
2021/06/29 11:28:44;;;;;;;;;;;;;;;25.65;55.92;101017.00;5047084;28;1287;-63
2021/06/29 11:31:31;;;;;;;;;;;;;;;25.64;56.23;101009.94;5047648;28;1409;-64
2021/06/29 11:34:25;;;;;;;;;;;;;;;25.65;55.82;101008.97;5065077;28;1906;-62
2021/06/29 11:37:11;;;;;;;;;;;;;;;25.68;56.18;101008.72;5041933;28;1530;-66
2021/06/29 11:39:57;;;;;;;;;;;;;;;25.70;55.48;101001.44;5045232;28;1094;-66
2021/06/29 11:43:02;;;;;;;;;;;;;;;25.67;55.99;101007.03;5044408;28;1279;-68
2021/06/29 11:45:48;;;;;;;;;;;;;;;25.71;55.79;101009.34;5038615;28;743;-66
2021/06/29 11:48:39;;;;;;;;;;;;;;;25.69;55.92;101005.91;5032575;28;1261;-68
2021/06/29 11:51:44;;;;;;;;;;;;;;;25.73;55.98;101001.19;5041684;28;649;-67
2021/06/29 11:54:32;;;;;;;;;;;;;;;25.74;56.24;101005.56;5043807;28;1906;-66
2021/06/29 11:57:17;;;;;;;;;;;;;;;25.73;55.89;101003.84;5047114;28;1232;-65
2021/06/29 12:00:06;;;;;;;;;;;;;;;25.72;56.00;100995.00;5047869;28;998;-66
2021/06/29 12:02:58;;;;;;;;;;;;;;;25.73;56.13;100996.69;5031182;28;1365;-68
2021/06/29 12:05:44;;;;;;;;;;;;;;;25.73;55.96;100996.69;5046050;28;1402;-68
2021/06/29 12:08:29;;;;;;;;;;;;;;;25.71;55.87;101005.81;5044270;28;1366;-66
2021/06/29 12:11:15;;;;;;;;;;;;;;;25.73;56.32;101001.19;5046455;28;580;-67
2021/06/29 12:14:04;;;;;;;;;;;;;;;25.75;56.10;100991.22;5045317;28;1902;-67
2021/06/29 12:16:49;;;;;;;;;;;;;;;25.77;56.21;100995.50;5044458;28;1942;-66
2021/06/29 12:19:34;;;;;;;;;;;;;;;25.75;55.95;100993.88;5045359;28;1116;-67
2021/06/29 12:22:33;;;;;;;;;;;;;;;25.74;56.24;100984.22;5046444;28;1247;-65
2021/06/29 12:25:26;;;;;;;;;;;;;;;25.72;55.90;100978.13;5047075;28;1055;-64
2021/06/29 12:28:13;;;;;;;;;;;;;;;25.73;55.78;100978.03;5043297;28;1277;-66
2021/06/29 12:31:00;;;;;;;;;;;;;;;25.74;55.91;100984.22;5036628;28;620;-65
2021/06/29 12:33:46;;;;;;;;;;;;;;;25.75;56.06;100988.56;5056093;28;1922;-67
2021/06/29 12:36:32;;;;;;;;;;;;;;;25.72;56.29;100988.81;5066840;28;1285;-66
2021/06/29 12:39:17;;;;;;;;;;;;;;;25.70;56.12;100990.75;5027168;28;1113;-68
2021/06/29 12:42:10;;;;;;;;;;;;;;;25.64;56.55;100992.13;5028290;28;1367;-65
2021/06/29 12:44:56;;;;;;;;;;;;;;;25.68;56.34;100992.72;5046406;28;1125;-64
2021/06/29 12:47:41;;;;;;;;;;;;;;;25.68;56.28;100982.06;5046069;28;1216;-65
2021/06/29 12:50:27;;;;;;;;;;;;;;;25.69;55.91;100973.91;5044887;28;1162;-62
2021/06/29 12:53:12;;;;;;;;;;;;;;;25.72;56.04;100983.47;5044377;28;1961;-68
2021/06/29 12:56:05;;;;;;;;;;;;;;;25.70;56.49;100977.44;5046370;28;679;-66
2021/06/29 12:58:50;;;;;;;;;;;;;;;25.69;56.24;100978.38;5039618;28;1282;-65
2021/06/29 13:01:43;;;;;;;;;;;;;;;25.71;56.55;100976.47;5028161;28;1350;-66
2021/06/29 13:04:35;;;;;;;;;;;;;;;25.73;56.48;100963.84;5026681;28;1054;-64
2021/06/29 13:07:21;;;;;;;;;;;;;;;25.74;56.45;100969.06;5030066;28;1310;-62
2021/06/29 13:10:07;;;;;;;;;;;;;;;25.77;56.68;100973.28;5051924;28;1045;-66
2021/06/29 13:12:52;;;;;;;;;;;;;;;25.86;56.00;100967.19;5051339;28;1906;-67
2021/06/29 13:15:37;;;;;;;;;;;;;;;25.84;56.00;100972.63;5050755;28;1084;-67
2021/06/29 13:18:36;;;;;;;;;;;;;;;25.87;56.21;100974.22;5050106;28;1575;-64
2021/06/29 13:21:28;;;;;;;;;;;;;;;25.89;56.80;100974.94;5051753;28;809;-64
2021/06/29 13:24:14;;;;;;;;;;;;;;;25.93;56.51;100977.19;5048145;28;1416;-63
2021/06/29 13:27:05;;;;;;;;;;;;;;;25.93;56.67;100971.03;5056376;28;1317;-64
2021/06/29 13:29:58;;;;;;;;;;;;;;;25.88;56.64;100975.91;5050711;28;1574;-63
2021/06/29 13:32:46;;;;;;;;;;;;;;;25.88;56.65;100967.91;5036509;28;1906;-64
2021/06/29 13:35:31;;;;;;;;;;;;;;;25.89;56.55;100969.59;5040610;28;1581;-64
2021/06/29 13:38:18;;;;;;;;;;;;;;;25.94;56.61;100972.72;5041105;28;1365;-65
2021/06/29 13:41:05;;;;;;;;;;;;;;;25.93;56.35;100981.72;5049799;28;694;-64
2021/06/29 13:44:06;;;;;;;;;;;;;;;25.94;56.30;100972.72;5047041;28;1040;-67
2021/06/29 13:47:03;;;;;;;;;;;;;;;25.93;56.45;100976.38;5049411;28;1367;-65
2021/06/29 13:50:06;;;;;;;;;;;;;;;25.93;56.46;100971.03;5050010;28;1037;-67
2021/06/29 13:52:58;;;;;;;;;;;;;;;25.92;56.39;100962.19;5049418;28;2357;-67
2021/06/29 13:55:54;;;;;;;;;;;;;;;25.94;56.59;100970.06;5050002;28;1082;-64
2021/06/29 13:58:47;;;;;;;;;;;;;;;25.94;56.26;100962.03;5051457;28;1181;-63
2021/06/29 14:01:34;;;;;;;;;;;;;;;25.96;55.98;100976.13;5069708;28;1283;-64
2021/06/29 14:04:19;;;;;;;;;;;;;;;25.96;56.14;100976.13;5029806;28;1036;-66
2021/06/29 14:07:06;;;;;;;;;;;;;;;25.97;56.52;100975.13;5031596;28;1300;-67
2021/06/29 14:09:53;;;;;;;;;;;;;;;25.92;57.16;100975.53;5049445;28;994;-69
2021/06/29 14:12:40;;;;;;;;;;;;;;;25.90;56.53;100969.47;5049089;28;1985;-68
2021/06/29 14:15:26;;;;;;;;;;;;;;;25.91;56.40;100970.31;5049501;28;1082;-66
2021/06/29 14:18:12;;;;;;;;;;;;;;;25.91;56.52;100967.63;5048778;28;1797;-67
2021/06/29 14:20:57;;;;;;;;;;;;;;;25.85;56.72;100962.81;5049314;28;621;-67
2021/06/29 14:23:44;;;;;;;;;;;;;;;25.84;57.07;100961.97;5046751;28;1444;-68
2021/06/29 14:26:30;;;;;;;;;;;;;;;25.84;56.82;100963.81;5047861;28;1306;-68
2021/06/29 14:29:15;;;;;;;;;;;;;;;25.84;57.03;100966.47;5049226;28;1155;-69
2021/06/29 14:32:00;;;;;;;;;;;;;;;25.85;57.14;100960.16;5049441;28;1323;-68
2021/06/29 14:34:46;;;;;;;;;;;;;;;25.84;56.85;100955.81;5067844;28;1971;-63
2021/06/29 14:37:32;;;;;;;;;;;;;;;25.73;57.65;100963.84;5048520;28;1320;-62
2021/06/29 14:40:19;;;;;;;;;;;;;;;25.72;57.16;100952.31;5049107;28;1096;-62